Temp: 8.2°C   Baro: 1033.1mb
  Wind: 11.0mph   Dir: ESE (106°)
  Rain: 0.0mm (0.0mm/hr)
  Solar: 575W/m2  Hum: 68%
 
Bath Spa Weather Historical Data
Daily Summary for February 24, 2020 Units:  Both    English   Metric
Next Day »
Daily Weekly Monthly Yearly Custom
  High: Low: Average:
Temperature: 54 °F /  12.2 °C 40.8 °F /  4.9 °C 48.6 °F /  9.2 °C
Dew Point: 51.4 °F /  10.8 °C 37.2 °F /  2.9 °C 45.1 °F /  7.3 °C
Humidity: 95% 82% 88%
Wind Speed: 23mph /  37.0km/h - 8.4mph /  13.5km/h
Wind Gust: 36mph /  57.9km/h - -
Wind direction- - West
Pressure: 29.9 in /  1013.1 hPa 29.6 in /  1003.9 hPa -
Precipitation: 0.02 in /  0.5 mm    
Historical Graphs
 
 
Tabular Data for February 24, 2020
Time Temperature Dew Point Pressure Wind direction Wind Speed Wind Gust Humidity Rainfall Rate (Hourly) solar
00:00 49.6 °F /  9.8 °C 48 °F /  8.9 °C 29.9in /  1013.1hPa SW 2mph /  3.2km/h 5mph /  8.0km/h 94% 0in /  0.0mm 0.00 W/m2
00:05 50.2 °F /  10.1 °C 48.6 °F /  9.2 °C 29.9in /  1013.1hPa WSW 6mph /  9.7km/h 9mph /  14.5km/h 94% 0in /  0.0mm 0.00 W/m2
00:10 50.5 °F /  10.3 °C 49.1 °F /  9.5 °C 29.9in /  1013.1hPa WSW 8.1mph /  13.0km/h 8mph /  12.9km/h 95% 0in /  0.0mm 0.00 W/m2
00:15 50.7 °F /  10.4 °C 49.1 °F /  9.5 °C 29.9in /  1013.1hPa SW 8.9mph /  14.3km/h 14mph /  22.5km/h 94% 0in /  0.0mm 0.00 W/m2
00:20 51.1 °F /  10.6 °C 49.5 °F /  9.7 °C 29.9in /  1012.8hPa West 6.9mph /  11.1km/h 13mph /  20.9km/h 94% 0in /  0.0mm 0.00 W/m2
00:25 51.1 °F /  10.6 °C 49.5 °F /  9.7 °C 29.9in /  1012.4hPa West 6.9mph /  11.1km/h 12mph /  19.3km/h 94% 0in /  0.0mm 0.00 W/m2
00:30 51.3 °F /  10.7 °C 49.6 °F /  9.8 °C 29.9in /  1012.4hPa WSW 8.1mph /  13.0km/h 12mph /  19.3km/h 94% 0in /  0.0mm 0.00 W/m2
00:35 51.3 °F /  10.7 °C 49.6 °F /  9.8 °C 29.9in /  1012.4hPa SW 4.9mph /  7.9km/h 10mph /  16.1km/h 94% 0in /  0.0mm 0.00 W/m2
00:40 51.3 °F /  10.7 °C 49.6 °F /  9.8 °C 29.9in /  1012.4hPa SSW 2.9mph /  4.7km/h 11mph /  17.7km/h 94% 0in /  0.0mm 0.00 W/m2
00:45 51.4 °F /  10.8 °C 49.5 °F /  9.7 °C 29.9in /  1012.1hPa West 2.9mph /  4.7km/h 17mph /  27.4km/h 93% 0in /  0.0mm 0.00 W/m2
00:50 51.6 °F /  10.9 °C 49.6 °F /  9.8 °C 29.9in /  1012.1hPa West 12.1mph /  19.5km/h 18mph /  29.0km/h 93% 0in /  0.0mm 0.00 W/m2
00:55 51.6 °F /  10.9 °C 49.5 °F /  9.7 °C 29.9in /  1012.1hPa West 8.1mph /  13.0km/h 12mph /  19.3km/h 92% 0in /  0.0mm 0.00 W/m2
01:00 51.8 °F /  11.0 °C 49.3 °F /  9.6 °C 29.9in /  1011.7hPa WNW 4mph /  6.4km/h 14mph /  22.5km/h 91% 0in /  0.0mm 0.00 W/m2
01:05 52 °F /  11.1 °C 49.5 °F /  9.7 °C 29.9in /  1011.7hPa WNW 8.9mph /  14.3km/h 16mph /  25.7km/h 91% 0in /  0.0mm 0.00 W/m2
01:10 52 °F /  11.1 °C 48.9 °F /  9.4 °C 29.9in /  1011.4hPa WNW 10.1mph /  16.3km/h 12mph /  19.3km/h 89% 0in /  0.0mm 0.00 W/m2
01:15 52 °F /  11.1 °C 48.9 °F /  9.4 °C 29.9in /  1011.4hPa WSW 6.9mph /  11.1km/h 14mph /  22.5km/h 89% 0in /  0.0mm 0.00 W/m2
01:21 52 °F /  11.1 °C 48.6 °F /  9.2 °C 29.9in /  1011.1hPa WSW 4.9mph /  7.9km/h 13mph /  20.9km/h 88% 0in /  0.0mm 0.00 W/m2
01:25 52 °F /  11.1 °C 48.6 °F /  9.2 °C 29.9in /  1011.1hPa SW 6mph /  9.7km/h 18mph /  29.0km/h 88% 0in /  0.0mm 0.00 W/m2
01:30 52 °F /  11.1 °C 48.2 °F /  9.0 °C 29.9in /  1011.1hPa West 8.1mph /  13.0km/h 20mph /  32.2km/h 87% 0in /  0.0mm 0.00 W/m2
01:35 52 °F /  11.1 °C 48.2 °F /  9.0 °C 29.8in /  1010.7hPa West 13mph /  20.9km/h 21mph /  33.8km/h 87% 0in /  0.0mm 0.00 W/m2
01:40 52 °F /  11.1 °C 48.2 °F /  9.0 °C 29.8in /  1010.7hPa WNW 6.9mph /  11.1km/h 14mph /  22.5km/h 87% 0in /  0.0mm 0.00 W/m2
01:45 52 °F /  11.1 °C 48.2 °F /  9.0 °C 29.8in /  1010.4hPa West 6mph /  9.7km/h 14mph /  22.5km/h 87% 0in /  0.0mm 0.00 W/m2
01:50 51.8 °F /  11.0 °C 48 °F /  8.9 °C 29.8in /  1010.4hPa West 8.1mph /  13.0km/h 11mph /  17.7km/h 87% 0in /  0.0mm 0.00 W/m2
01:55 51.8 °F /  11.0 °C 48 °F /  8.9 °C 29.8in /  1010.0hPa WNW 6.9mph /  11.1km/h 13mph /  20.9km/h 87% 0in /  0.0mm 0.00 W/m2
02:00 52 °F /  11.1 °C 48.2 °F /  9.0 °C 29.8in /  1010.0hPa WSW 17mph /  27.4km/h 17mph /  27.4km/h 87% 0in /  0.0mm 0.00 W/m2
02:05 52 °F /  11.1 °C 47.8 °F /  8.8 °C 29.8in /  1009.7hPa SSW 6.9mph /  11.1km/h 19mph /  30.6km/h 86% 0in /  0.0mm 0.00 W/m2
02:10 52 °F /  11.1 °C 47.8 °F /  8.8 °C 29.8in /  1009.7hPa West 6mph /  9.7km/h 18mph /  29.0km/h 86% 0in /  0.0mm 0.00 W/m2
02:15 51.8 °F /  11.0 °C 47.7 °F /  8.7 °C 29.8in /  1009.7hPa WSW 21mph /  33.8km/h 21mph /  33.8km/h 86% 0in /  0.0mm 0.00 W/m2
02:20 52 °F /  11.1 °C 47.8 °F /  8.8 °C 29.8in /  1009.4hPa WSW 8.1mph /  13.0km/h 11mph /  17.7km/h 86% 0in /  0.0mm 0.00 W/m2
02:25 52 °F /  11.1 °C 47.8 °F /  8.8 °C 29.8in /  1009.4hPa SW 6mph /  9.7km/h 16mph /  25.7km/h 86% 0in /  0.0mm 5.00 W/m2
02:30 52 °F /  11.1 °C 47.8 °F /  8.8 °C 29.8in /  1009.4hPa West 8.1mph /  13.0km/h 13mph /  20.9km/h 86% 0in /  0.0mm 5.00 W/m2
02:35 52 °F /  11.1 °C 47.8 °F /  8.8 °C 29.8in /  1009.4hPa West 4mph /  6.4km/h 15mph /  24.1km/h 86% 0in /  0.0mm 5.00 W/m2
02:40 52 °F /  11.1 °C 47.8 °F /  8.8 °C 29.8in /  1009.0hPa WNW 8.1mph /  13.0km/h 14mph /  22.5km/h 86% 0in /  0.0mm 9.00 W/m2
02:45 52.2 °F /  11.2 °C 47.8 °F /  8.8 °C 29.8in /  1009.4hPa WSW 15mph /  24.1km/h 20mph /  32.2km/h 85% 0in /  0.0mm 5.00 W/m2
02:50 52 °F /  11.1 °C 47.7 °F /  8.7 °C 29.8in /  1009.4hPa WSW 14.1mph /  22.7km/h 19mph /  30.6km/h 85% 0in /  0.0mm 5.00 W/m2
02:55 52.2 °F /  11.2 °C 47.8 °F /  8.8 °C 29.8in /  1009.4hPa WSW 13mph /  20.9km/h 15mph /  24.1km/h 85% 0in /  0.0mm 7.00 W/m2
03:00 52.2 °F /  11.2 °C 47.8 °F /  8.8 °C 29.8in /  1009.4hPa WSW 8.9mph /  14.3km/h 19mph /  30.6km/h 85% 0in /  0.0mm 7.00 W/m2
03:05 52.2 °F /  11.2 °C 47.8 °F /  8.8 °C 29.8in /  1009.4hPa West 6.9mph /  11.1km/h 14mph /  22.5km/h 85% 0in /  0.0mm 12.00 W/m2
03:10 52 °F /  11.1 °C 47.7 °F /  8.7 °C 29.8in /  1009.0hPa WSW 6mph /  9.7km/h 14mph /  22.5km/h 85% 0in /  0.0mm 14.00 W/m2
03:15 52 °F /  11.1 °C 47.8 °F /  8.8 °C 29.8in /  1009.0hPa WSW 8.1mph /  13.0km/h 16mph /  25.7km/h 86% 0in /  0.0mm 9.00 W/m2
03:20 52 °F /  11.1 °C 47.8 °F /  8.8 °C 29.8in /  1009.0hPa WSW 11mph /  17.7km/h 14mph /  22.5km/h 86% 0in /  0.0mm 7.00 W/m2
03:25 52 °F /  11.1 °C 47.8 °F /  8.8 °C 29.8in /  1009.0hPa West 4mph /  6.4km/h 19mph /  30.6km/h 86% 0in /  0.0mm 9.00 W/m2
03:30 52 °F /  11.1 °C 47.8 °F /  8.8 °C 29.8in /  1009.0hPa West 11mph /  17.7km/h 13mph /  20.9km/h 86% 0in /  0.0mm 16.00 W/m2
03:35 52 °F /  11.1 °C 48.2 °F /  9.0 °C 29.8in /  1009.0hPa WSW 4.9mph /  7.9km/h 18mph /  29.0km/h 87% 0in /  0.0mm 23.00 W/m2
03:40 51.6 °F /  10.9 °C 48.2 °F /  9.0 °C 29.8in /  1008.7hPa WSW 6.9mph /  11.1km/h 11mph /  17.7km/h 88% 0in /  0.0mm 30.00 W/m2
03:45 51.3 °F /  10.7 °C 48.2 °F /  9.0 °C 29.8in /  1008.7hPa SW 6.9mph /  11.1km/h 16mph /  25.7km/h 89% 0in /  0.0mm 33.00 W/m2
03:50 51.3 °F /  10.7 °C 48.2 °F /  9.0 °C 29.8in /  1008.7hPa West 6mph /  9.7km/h 13mph /  20.9km/h 89% 0in /  0.0mm 42.00 W/m2
03:55 51.3 °F /  10.7 °C 48.4 °F /  9.1 °C 29.8in /  1008.7hPa WSW 8.9mph /  14.3km/h 11mph /  17.7km/h 90% 0.01in /  0.3mm 47.00 W/m2
04:00 51.3 °F /  10.7 °C 48.7 °F /  9.3 °C 29.8in /  1008.4hPa West 10.1mph /  16.3km/h 17mph /  27.4km/h 91% 0.01in /  0.3mm 47.00 W/m2
04:05 51.3 °F /  10.7 °C 48.7 °F /  9.3 °C 29.8in /  1008.4hPa SW 4.9mph /  7.9km/h 17mph /  27.4km/h 91% 0.02in /  0.5mm 54.00 W/m2
04:10 51.3 °F /  10.7 °C 48.7 °F /  9.3 °C 29.8in /  1008.4hPa West 15mph /  24.1km/h 18mph /  29.0km/h 91% 0.02in /  0.5mm 39.00 W/m2
04:15 51.4 °F /  10.8 °C 48.9 °F /  9.4 °C 29.8in /  1008.4hPa SW 4mph /  6.4km/h 14mph /  22.5km/h 91% 0.02in /  0.5mm 44.00 W/m2
04:20 51.4 °F /  10.8 °C 48.9 °F /  9.4 °C 29.8in /  1008.4hPa South 13mph /  20.9km/h 15mph /  24.1km/h 91% 0.02in /  0.5mm 54.00 W/m2
04:25 51.6 °F /  10.9 °C 49.1 °F /  9.5 °C 29.8in /  1008.4hPa SW 11mph /  17.7km/h 12mph /  19.3km/h 91% 0.02in /  0.5mm 56.00 W/m2
04:30 51.6 °F /  10.9 °C 49.1 °F /  9.5 °C 29.8in /  1008.4hPa WSW 16.1mph /  25.9km/h 20mph /  32.2km/h 91% 0.02in /  0.5mm 60.00 W/m2
04:35 51.6 °F /  10.9 °C 49.1 °F /  9.5 °C 29.8in /  1008.4hPa South 19mph /  30.6km/h 19mph /  30.6km/h 91% 0.03in /  0.8mm 86.00 W/m2
04:40 51.6 °F /  10.9 °C 49.1 °F /  9.5 °C 29.8in /  1008.0hPa SW 10.1mph /  16.3km/h 18mph /  29.0km/h 91% 0.03in /  0.8mm 95.00 W/m2
04:45 51.6 °F /  10.9 °C 49.1 °F /  9.5 °C 29.8in /  1008.4hPa West 12.1mph /  19.5km/h 18mph /  29.0km/h 91% 0.04in /  1.0mm 56.00 W/m2
04:50 51.6 °F /  10.9 °C 49.1 °F /  9.5 °C 29.8in /  1008.0hPa SW 11mph /  17.7km/h 15mph /  24.1km/h 91% 0.05in /  1.3mm 105.00 W/m2
04:55 51.8 °F /  11.0 °C 49.3 °F /  9.6 °C 29.8in /  1008.0hPa WSW 14.1mph /  22.7km/h 25mph /  40.2km/h 91% 0.04in /  1.0mm 114.00 W/m2
05:00 51.8 °F /  11.0 °C 49.6 °F /  9.8 °C 29.8in /  1008.0hPa West 13mph /  20.9km/h 19mph /  30.6km/h 92% 0.05in /  1.3mm 86.00 W/m2
05:05 51.8 °F /  11.0 °C 49.6 °F /  9.8 °C 29.8in /  1007.7hPa WSW 6mph /  9.7km/h 12mph /  19.3km/h 92% 0.04in /  1.0mm 104.00 W/m2
05:10 52 °F /  11.1 °C 49.6 °F /  9.8 °C 29.8in /  1007.7hPa WSW 6mph /  9.7km/h 17mph /  27.4km/h 92% 0.05in /  1.3mm 83.00 W/m2
05:15 51.8 °F /  11.0 °C 49.6 °F /  9.8 °C 29.8in /  1008.0hPa West 10.1mph /  16.3km/h 10mph /  16.1km/h 92% 0.05in /  1.3mm 42.00 W/m2
05:20 51.6 °F /  10.9 °C 49.5 °F /  9.7 °C 29.8in /  1008.0hPa SW 12.1mph /  19.5km/h 19mph /  30.6km/h 92% 0.05in /  1.3mm 37.00 W/m2
05:25 51.8 °F /  11.0 °C 49.6 °F /  9.8 °C 29.8in /  1008.0hPa WSW 19.9mph /  32.0km/h 20mph /  32.2km/h 92% 0.06in /  1.5mm 77.00 W/m2
05:30 51.6 °F /  10.9 °C 49.5 °F /  9.7 °C 29.8in /  1007.7hPa WSW 6.9mph /  11.1km/h 11mph /  17.7km/h 92% 0.06in /  1.5mm 72.00 W/m2
05:35 51.6 °F /  10.9 °C 49.5 °F /  9.7 °C 29.8in /  1007.7hPa WSW 6mph /  9.7km/h 22mph /  35.4km/h 92% 0.06in /  1.5mm 44.00 W/m2
05:40 51.6 °F /  10.9 °C 49.5 °F /  9.7 °C 29.8in /  1007.7hPa WNW 8.1mph /  13.0km/h 14mph /  22.5km/h 92% 0.06in /  1.5mm 42.00 W/m2
05:45 51.6 °F /  10.9 °C 49.5 °F /  9.7 °C 29.8in /  1007.7hPa WSW 11mph /  17.7km/h 13mph /  20.9km/h 92% 0.07in /  1.8mm 40.00 W/m2
05:50 51.4 °F /  10.8 °C 49.3 °F /  9.6 °C 29.8in /  1007.7hPa WSW 11mph /  17.7km/h 19mph /  30.6km/h 92% 0.07in /  1.8mm 32.00 W/m2
05:55 51.6 °F /  10.9 °C 49.5 °F /  9.7 °C 29.8in /  1007.7hPa WNW 10.1mph /  16.3km/h 14mph /  22.5km/h 92% 0.09in /  2.3mm 47.00 W/m2
06:00 51.6 °F /  10.9 °C 49.5 °F /  9.7 °C 29.8in /  1007.7hPa WNW 8.1mph /  13.0km/h 16mph /  25.7km/h 92% 0.09in /  2.3mm 37.00 W/m2
06:05 51.6 °F /  10.9 °C 49.5 °F /  9.7 °C 29.7in /  1007.3hPa SW 8.9mph /  14.3km/h 15mph /  24.1km/h 92% 0.09in /  2.3mm 69.00 W/m2
06:10 51.6 °F /  10.9 °C 49.5 °F /  9.7 °C 29.7in /  1007.3hPa West 10.1mph /  16.3km/h 17mph /  27.4km/h 92% 0.1in /  2.5mm 40.00 W/m2
06:15 51.6 °F /  10.9 °C 49.6 °F /  9.8 °C 29.7in /  1007.3hPa WSW 4.9mph /  7.9km/h 19mph /  30.6km/h 93% 0.11in /  2.8mm 47.00 W/m2
06:20 51.6 °F /  10.9 °C 49.6 °F /  9.8 °C 29.7in /  1007.3hPa West 8.1mph /  13.0km/h 18mph /  29.0km/h 93% 0.11in /  2.8mm 46.00 W/m2
06:25 51.6 °F /  10.9 °C 49.6 °F /  9.8 °C 29.7in /  1007.3hPa West 6mph /  9.7km/h 14mph /  22.5km/h 93% 0.12in /  3.0mm 56.00 W/m2
06:30 51.6 °F /  10.9 °C 49.6 °F /  9.8 °C 29.7in /  1007.3hPa West 2.9mph /  4.7km/h 17mph /  27.4km/h 93% 0.11in /  2.8mm 47.00 W/m2
06:35 51.6 °F /  10.9 °C 49.6 °F /  9.8 °C 29.7in /  1007.3hPa WNW 2.9mph /  4.7km/h 11mph /  17.7km/h 93% 0.13in /  3.3mm 54.00 W/m2
06:40 51.6 °F /  10.9 °C 49.6 °F /  9.8 °C 29.7in /  1007.3hPa West 4.9mph /  7.9km/h 13mph /  20.9km/h 93% 0.12in /  3.0mm 63.00 W/m2
06:45 51.6 °F /  10.9 °C 49.6 °F /  9.8 °C 29.7in /  1007.3hPa West 4.9mph /  7.9km/h 13mph /  20.9km/h 93% 0.12in /  3.0mm 67.00 W/m2
06:50 51.8 °F /  11.0 °C 49.8 °F /  9.9 °C 29.7in /  1007.0hPa West 6.9mph /  11.1km/h 12mph /  19.3km/h 93% 0.11in /  2.8mm 54.00 W/m2
06:55 51.8 °F /  11.0 °C 49.8 °F /  9.9 °C 29.7in /  1007.0hPa WNW 8.9mph /  14.3km/h 16mph /  25.7km/h 93% 0.1in /  2.5mm 65.00 W/m2
07:00 52 °F /  11.1 °C 50 °F /  10.0 °C 29.7in /  1007.0hPa SW 4mph /  6.4km/h 14mph /  22.5km/h 93% 0.09in /  2.3mm 77.00 W/m2
07:05 52 °F /  11.1 °C 50 °F /  10.0 °C 29.7in /  1006.7hPa West 6mph /  9.7km/h 15mph /  24.1km/h 93% 0.09in /  2.3mm 42.00 W/m2
07:11 52 °F /  11.1 °C 50 °F /  10.0 °C 29.7in /  1006.3hPa WSW 10.1mph /  16.3km/h 12mph /  19.3km/h 93% 0.09in /  2.3mm 86.00 W/m2
07:15 52 °F /  11.1 °C 50 °F /  10.0 °C 29.7in /  1006.3hPa West 6mph /  9.7km/h 19mph /  30.6km/h 93% 0.08in /  2.0mm 100.00 W/m2
07:20 52.2 °F /  11.2 °C 50.2 °F /  10.1 °C 29.7in /  1006.7hPa West 6.9mph /  11.1km/h 14mph /  22.5km/h 93% 0.07in /  1.8mm 69.00 W/m2
07:25 52.2 °F /  11.2 °C 50.2 °F /  10.1 °C 29.7in /  1006.7hPa West 6mph /  9.7km/h 10mph /  16.1km/h 93% 0.06in /  1.5mm 79.00 W/m2
07:30 52.2 °F /  11.2 °C 50.2 °F /  10.1 °C 29.7in /  1006.3hPa SSW 8.9mph /  14.3km/h 15mph /  24.1km/h 93% 0.06in /  1.5mm 69.00 W/m2
07:35 52.3 °F /  11.3 °C 50.4 °F /  10.2 °C 29.7in /  1006.3hPa West 13mph /  20.9km/h 17mph /  27.4km/h 93% 0.04in /  1.0mm 100.00 W/m2
07:40 52.3 °F /  11.3 °C 50.4 °F /  10.2 °C 29.7in /  1006.0hPa WSW 4mph /  6.4km/h 13mph /  20.9km/h 93% 0.04in /  1.0mm 67.00 W/m2
07:45 52.3 °F /  11.3 °C 50.4 °F /  10.2 °C 29.7in /  1006.0hPa West 10.1mph /  16.3km/h 15mph /  24.1km/h 93% 0.03in /  0.8mm 53.00 W/m2
07:50 52.5 °F /  11.4 °C 50.5 °F /  10.3 °C 29.7in /  1006.0hPa West 8.1mph /  13.0km/h 12mph /  19.3km/h 93% 0.03in /  0.8mm 28.00 W/m2
07:55 52.5 °F /  11.4 °C 50.5 °F /  10.3 °C 29.7in /  1006.0hPa SW 6.9mph /  11.1km/h 16mph /  25.7km/h 93% 0.02in /  0.5mm 32.00 W/m2
08:00 52.5 °F /  11.4 °C 50.5 °F /  10.3 °C 29.7in /  1006.0hPa West 10.1mph /  16.3km/h 14mph /  22.5km/h 93% 0.02in /  0.5mm 39.00 W/m2
08:05 52.5 °F /  11.4 °C 50.5 °F /  10.3 °C 29.7in /  1005.6hPa SW 12.1mph /  19.5km/h 12mph /  19.3km/h 93% 0.01in /  0.3mm 95.00 W/m2
08:10 52.9 °F /  11.6 °C 50.5 °F /  10.3 °C 29.7in /  1005.6hPa West 12.1mph /  19.5km/h 13mph /  20.9km/h 92% 0.01in /  0.3mm 128.00 W/m2
08:15 53.1 °F /  11.7 °C 50.7 °F /  10.4 °C 29.7in /  1005.6hPa West 4.9mph /  7.9km/h 18mph /  29.0km/h 92% 0.01in /  0.3mm 125.00 W/m2
08:20 53.2 °F /  11.8 °C 50.9 °F /  10.5 °C 29.7in /  1005.6hPa West 10.1mph /  16.3km/h 20mph /  32.2km/h 92% 0.01in /  0.3mm 83.00 W/m2
08:25 53.4 °F /  11.9 °C 51.1 °F /  10.6 °C 29.7in /  1005.6hPa WSW 10.1mph /  16.3km/h 16mph /  25.7km/h 92% 0.01in /  0.3mm 76.00 W/m2
08:30 53.6 °F /  12.0 °C 51.1 °F /  10.6 °C 29.7in /  1005.3hPa WSW 14.1mph /  22.7km/h 22mph /  35.4km/h 91% 0.01in /  0.3mm 84.00 W/m2
08:35 54 °F /  12.2 °C 51.4 °F /  10.8 °C 29.7in /  1005.3hPa WNW 10.1mph /  16.3km/h 28mph /  45.1km/h 91% 0in /  0.0mm 84.00 W/m2
08:40 53.8 °F /  12.1 °C 50.9 °F /  10.5 °C 29.7in /  1005.6hPa West 13mph /  20.9km/h 22mph /  35.4km/h 90% 0in /  0.0mm 88.00 W/m2
08:45 53.8 °F /  12.1 °C 50.9 °F /  10.5 °C 29.7in /  1005.3hPa SW 10.1mph /  16.3km/h 14mph /  22.5km/h 90% 0in /  0.0mm 139.00 W/m2
08:50 53.8 °F /  12.1 °C 50.9 °F /  10.5 °C 29.7in /  1005.0hPa WSW 10.1mph /  16.3km/h 22mph /  35.4km/h 90% 0in /  0.0mm 98.00 W/m2
08:55 53.8 °F /  12.1 °C 50.9 °F /  10.5 °C 29.7in /  1005.0hPa WNW 6mph /  9.7km/h 18mph /  29.0km/h 90% 0in /  0.0mm 81.00 W/m2
09:00 54 °F /  12.2 °C 51.1 °F /  10.6 °C 29.7in /  1005.0hPa West 8.9mph /  14.3km/h 15mph /  24.1km/h 90% 0in /  0.0mm 93.00 W/m2
09:06 54 °F /  12.2 °C 51.1 °F /  10.6 °C 29.7in /  1005.0hPa WSW 19mph /  30.6km/h 23mph /  37.0km/h 90% 0in /  0.0mm 77.00 W/m2
09:10 54 °F /  12.2 °C 50.7 °F /  10.4 °C 29.7in /  1005.0hPa West 11mph /  17.7km/h 17mph /  27.4km/h 89% 0in /  0.0mm 65.00 W/m2
09:15 53.6 °F /  12.0 °C 50.7 °F /  10.4 °C 29.7in /  1005.0hPa WSW 8.1mph /  13.0km/h 18mph /  29.0km/h 90% 0in /  0.0mm 56.00 W/m2
09:20 53.2 °F /  11.8 °C 50.4 °F /  10.2 °C 29.7in /  1005.0hPa WNW 4.9mph /  7.9km/h 23mph /  37.0km/h 90% 0in /  0.0mm 60.00 W/m2
09:25 53.1 °F /  11.7 °C 50.2 °F /  10.1 °C 29.7in /  1005.0hPa WSW 8.1mph /  13.0km/h 16mph /  25.7km/h 90% 0in /  0.0mm 53.00 W/m2
09:30 52.9 °F /  11.6 °C 50.4 °F /  10.2 °C 29.7in /  1004.6hPa WSW 15mph /  24.1km/h 17mph /  27.4km/h 91% 0in /  0.0mm 76.00 W/m2
09:35 52.9 °F /  11.6 °C 50.4 °F /  10.2 °C 29.7in /  1004.6hPa West 4mph /  6.4km/h 14mph /  22.5km/h 91% 0in /  0.0mm 49.00 W/m2
09:40 52.9 °F /  11.6 °C 50.4 °F /  10.2 °C 29.7in /  1005.0hPa West 4mph /  6.4km/h 17mph /  27.4km/h 91% 0.01in /  0.3mm 113.00 W/m2
09:45 52.9 °F /  11.6 °C 50.5 °F /  10.3 °C 29.7in /  1004.6hPa WNW 8.1mph /  13.0km/h 12mph /  19.3km/h 92% 0.01in /  0.3mm 272.00 W/m2
09:50 52.9 °F /  11.6 °C 50.5 °F /  10.3 °C 29.7in /  1005.0hPa WNW 6.9mph /  11.1km/h 12mph /  19.3km/h 92% 0.01in /  0.3mm 58.00 W/m2
09:55 52.7 °F /  11.5 °C 50.4 °F /  10.2 °C 29.7in /  1005.0hPa WNW 2mph /  3.2km/h 12mph /  19.3km/h 92% 0.01in /  0.3mm 49.00 W/m2
10:00 52.5 °F /  11.4 °C 50.2 °F /  10.1 °C 29.7in /  1005.0hPa West 8.9mph /  14.3km/h 20mph /  32.2km/h 92% 0.01in /  0.3mm 77.00 W/m2
10:05 52.3 °F /  11.3 °C 50 °F /  10.0 °C 29.7in /  1005.0hPa WNW 8.1mph /  13.0km/h 18mph /  29.0km/h 92% 0.01in /  0.3mm 47.00 W/m2
10:10 52.3 °F /  11.3 °C 50 °F /  10.0 °C 29.7in /  1005.0hPa WNW 8.9mph /  14.3km/h 11mph /  17.7km/h 92% 0.01in /  0.3mm 42.00 W/m2
10:15 52 °F /  11.1 °C 49.6 °F /  9.8 °C 29.7in /  1005.3hPa West 12.1mph /  19.5km/h 36mph /  57.9km/h 92% 0.01in /  0.3mm 72.00 W/m2
10:20 51.8 °F /  11.0 °C 49.3 °F /  9.6 °C 29.7in /  1005.3hPa WSW 6mph /  9.7km/h 19mph /  30.6km/h 91% 0.01in /  0.3mm 76.00 W/m2
10:25 51.6 °F /  10.9 °C 49.1 °F /  9.5 °C 29.7in /  1005.0hPa WSW 16.1mph /  25.9km/h 24mph /  38.6km/h 91% 0.01in /  0.3mm 60.00 W/m2
10:30 51.6 °F /  10.9 °C 49.1 °F /  9.5 °C 29.7in /  1005.3hPa WNW 4.9mph /  7.9km/h 22mph /  35.4km/h 91% 0.01in /  0.3mm 84.00 W/m2
10:35 51.6 °F /  10.9 °C 48.7 °F /  9.3 °C 29.7in /  1005.3hPa NW 23mph /  37.0km/h 23mph /  37.0km/h 90% 0.01in /  0.3mm 77.00 W/m2
10:40 51.4 °F /  10.8 °C 48.6 °F /  9.2 °C 29.7in /  1005.3hPa West 6mph /  9.7km/h 22mph /  35.4km/h 90% 0in /  0.0mm 74.00 W/m2
10:45 51.6 °F /  10.9 °C 48.7 °F /  9.3 °C 29.7in /  1005.3hPa West 12.1mph /  19.5km/h 20mph /  32.2km/h 90% 0in /  0.0mm 69.00 W/m2
10:50 51.6 °F /  10.9 °C 48.6 °F /  9.2 °C 29.7in /  1005.3hPa West 16.1mph /  25.9km/h 23mph /  37.0km/h 89% 0in /  0.0mm 62.00 W/m2
10:55 51.6 °F /  10.9 °C 48.6 °F /  9.2 °C 29.7in /  1005.3hPa WNW 16.1mph /  25.9km/h 28mph /  45.1km/h 89% 0in /  0.0mm 58.00 W/m2
11:00 51.4 °F /  10.8 °C 48 °F /  8.9 °C 29.7in /  1005.0hPa West 12.1mph /  19.5km/h 26mph /  41.8km/h 88% 0in /  0.0mm 76.00 W/m2
11:05 51.4 °F /  10.8 °C 47.7 °F /  8.7 °C 29.7in /  1005.3hPa SW 14.1mph /  22.7km/h 28mph /  45.1km/h 87% 0in /  0.0mm 81.00 W/m2
11:10 51.3 °F /  10.7 °C 47.5 °F /  8.6 °C 29.7in /  1005.0hPa WNW 15mph /  24.1km/h 17mph /  27.4km/h 87% 0in /  0.0mm 70.00 W/m2
11:15 51.3 °F /  10.7 °C 47.5 °F /  8.6 °C 29.7in /  1005.0hPa NW 13mph /  20.9km/h 22mph /  35.4km/h 87% 0in /  0.0mm 62.00 W/m2
11:20 51.1 °F /  10.6 °C 47.1 °F /  8.4 °C 29.7in /  1005.3hPa West 19mph /  30.6km/h 29mph /  46.7km/h 86% 0in /  0.0mm 56.00 W/m2
11:25 51.1 °F /  10.6 °C 47.1 °F /  8.4 °C 29.7in /  1005.0hPa WSW 15mph /  24.1km/h 24mph /  38.6km/h 86% 0in /  0.0mm 39.00 W/m2
11:31 50.9 °F /  10.5 °C 46.9 °F /  8.3 °C 29.7in /  1005.3hPa WNW 13mph /  20.9km/h 21mph /  33.8km/h 86% 0in /  0.0mm 21.00 W/m2
11:35 50.7 °F /  10.4 °C 46.8 °F /  8.2 °C 29.7in /  1005.3hPa WSW 21mph /  33.8km/h 29mph /  46.7km/h 86% 0in /  0.0mm 25.00 W/m2
11:40 50.7 °F /  10.4 °C 46.8 °F /  8.2 °C 29.7in /  1005.0hPa West 13mph /  20.9km/h 29mph /  46.7km/h 86% 0in /  0.0mm 14.00 W/m2
11:45 50.4 °F /  10.2 °C 46.4 °F /  8.0 °C 29.7in /  1005.0hPa NW 13mph /  20.9km/h 23mph /  37.0km/h 86% 0in /  0.0mm 18.00 W/m2
11:50 50.4 °F /  10.2 °C 46.4 °F /  8.0 °C 29.7in /  1005.0hPa West 8.9mph /  14.3km/h 21mph /  33.8km/h 86% 0in /  0.0mm 18.00 W/m2
11:55 50.2 °F /  10.1 °C 46.4 °F /  8.0 °C 29.7in /  1005.3hPa West 8.1mph /  13.0km/h 24mph /  38.6km/h 87% 0in /  0.0mm 19.00 W/m2
12:00 50.2 °F /  10.1 °C 46.4 °F /  8.0 °C 29.7in /  1005.3hPa WNW 11mph /  17.7km/h 27mph /  43.4km/h 87% 0in /  0.0mm 12.00 W/m2
12:05 49.8 °F /  9.9 °C 46 °F /  7.8 °C 29.7in /  1005.3hPa WNW 11mph /  17.7km/h 21mph /  33.8km/h 87% 0in /  0.0mm 7.00 W/m2
12:10 49.8 °F /  9.9 °C 46.4 °F /  8.0 °C 29.7in /  1005.3hPa WNW 16.1mph /  25.9km/h 24mph /  38.6km/h 88% 0in /  0.0mm 7.00 W/m2
12:15 49.6 °F /  9.8 °C 46.2 °F /  7.9 °C 29.7in /  1005.3hPa West 8.9mph /  14.3km/h 16mph /  25.7km/h 88% 0in /  0.0mm 7.00 W/m2
12:20 49.5 °F /  9.7 °C 46 °F /  7.8 °C 29.7in /  1005.3hPa WNW 8.1mph /  13.0km/h 22mph /  35.4km/h 88% 0in /  0.0mm 7.00 W/m2
12:25 49.3 °F /  9.6 °C 45.9 °F /  7.7 °C 29.7in /  1005.3hPa WNW 10.1mph /  16.3km/h 28mph /  45.1km/h 88% 0in /  0.0mm 7.00 W/m2
12:30 49.3 °F /  9.6 °C 45.9 °F /  7.7 °C 29.7in /  1005.3hPa West 10.1mph /  16.3km/h 21mph /  33.8km/h 88% 0in /  0.0mm 5.00 W/m2
12:35 49.1 °F /  9.5 °C 45.7 °F /  7.6 °C 29.7in /  1005.3hPa WNW 8.1mph /  13.0km/h 28mph /  45.1km/h 88% 0in /  0.0mm 5.00 W/m2
12:40 48.9 °F /  9.4 °C 45.5 °F /  7.5 °C 29.7in /  1005.3hPa SW 17.9mph /  28.8km/h 27mph /  43.4km/h 88% 0in /  0.0mm 0.00 W/m2
12:45 48.7 °F /  9.3 °C 45.3 °F /  7.4 °C 29.7in /  1005.3hPa West 17mph /  27.4km/h 21mph /  33.8km/h 88% 0in /  0.0mm 0.00 W/m2
12:50 48.7 °F /  9.3 °C 45.3 °F /  7.4 °C 29.7in /  1005.3hPa West 17mph /  27.4km/h 24mph /  38.6km/h 88% 0in /  0.0mm 0.00 W/m2
12:55 48.6 °F /  9.2 °C 45.1 °F /  7.3 °C 29.7in /  1005.6hPa West 14.1mph /  22.7km/h 17mph /  27.4km/h 88% 0in /  0.0mm 0.00 W/m2
13:00 48.6 °F /  9.2 °C 45.1 °F /  7.3 °C 29.7in /  1005.6hPa NW 11mph /  17.7km/h 21mph /  33.8km/h 88% 0in /  0.0mm 0.00 W/m2
13:05 48.4 °F /  9.1 °C 45 °F /  7.2 °C 29.7in /  1005.6hPa WNW 8.9mph /  14.3km/h 18mph /  29.0km/h 88% 0in /  0.0mm 0.00 W/m2
13:10 48.4 °F /  9.1 °C 45 °F /  7.2 °C 29.7in /  1005.6hPa WNW 8.9mph /  14.3km/h 18mph /  29.0km/h 88% 0in /  0.0mm 0.00 W/m2
13:15 48.4 °F /  9.1 °C 45 °F /  7.2 °C 29.7in /  1005.6hPa NW 16.1mph /  25.9km/h 18mph /  29.0km/h 88% 0in /  0.0mm 0.00 W/m2
13:21 48.4 °F /  9.1 °C 45 °F /  7.2 °C 29.7in /  1005.6hPa West 17.9mph /  28.8km/h 23mph /  37.0km/h 88% 0in /  0.0mm 0.00 W/m2
13:25 48.2 °F /  9.0 °C 44.8 °F /  7.1 °C 29.7in /  1005.6hPa WNW 16.1mph /  25.9km/h 25mph /  40.2km/h 88% 0in /  0.0mm 0.00 W/m2
13:30 48 °F /  8.9 °C 44.6 °F /  7.0 °C 29.7in /  1005.6hPa WNW 11mph /  17.7km/h 15mph /  24.1km/h 88% 0in /  0.0mm 0.00 W/m2
13:35 48 °F /  8.9 °C 44.6 °F /  7.0 °C 29.7in /  1005.6hPa West 12.1mph /  19.5km/h 20mph /  32.2km/h 88% 0in /  0.0mm 0.00 W/m2
13:40 47.8 °F /  8.8 °C 44.4 °F /  6.9 °C 29.7in /  1005.6hPa WNW 14.1mph /  22.7km/h 22mph /  35.4km/h 88% 0in /  0.0mm 0.00 W/m2
13:45 47.8 °F /  8.8 °C 44.4 °F /  6.9 °C 29.7in /  1006.0hPa WNW 6mph /  9.7km/h 16mph /  25.7km/h 88% 0in /  0.0mm 0.00 W/m2
13:50 47.8 °F /  8.8 °C 44.4 °F /  6.9 °C 29.7in /  1006.0hPa West 11mph /  17.7km/h 19mph /  30.6km/h 88% 0in /  0.0mm 0.00 W/m2
13:55 47.7 °F /  8.7 °C 44.2 °F /  6.8 °C 29.7in /  1006.0hPa West 17.9mph /  28.8km/h 19mph /  30.6km/h 88% 0in /  0.0mm 0.00 W/m2
14:00 47.7 °F /  8.7 °C 44.2 °F /  6.8 °C 29.7in /  1006.0hPa West 14.1mph /  22.7km/h 15mph /  24.1km/h 88% 0in /  0.0mm 0.00 W/m2
14:05 47.5 °F /  8.6 °C 43.9 °F /  6.6 °C 29.7in /  1006.0hPa WNW 10.1mph /  16.3km/h 17mph /  27.4km/h 87% 0in /  0.0mm 0.00 W/m2
14:10 47.5 °F /  8.6 °C 43.9 °F /  6.6 °C 29.7in /  1006.0hPa West 11mph /  17.7km/h 18mph /  29.0km/h 87% 0in /  0.0mm 0.00 W/m2
14:15 47.5 °F /  8.6 °C 43.9 °F /  6.6 °C 29.7in /  1006.0hPa NNW 13mph /  20.9km/h 21mph /  33.8km/h 87% 0in /  0.0mm 0.00 W/m2
14:20 47.5 °F /  8.6 °C 43.5 °F /  6.4 °C 29.7in /  1006.3hPa West 11mph /  17.7km/h 17mph /  27.4km/h 86% 0in /  0.0mm 0.00 W/m2
14:25 47.5 °F /  8.6 °C 43.5 °F /  6.4 °C 29.7in /  1006.3hPa West 16.1mph /  25.9km/h 21mph /  33.8km/h 86% 0in /  0.0mm 0.00 W/m2
14:30 47.1 °F /  8.4 °C 43.2 °F /  6.2 °C 29.7in /  1006.3hPa NNW 8.1mph /  13.0km/h 13mph /  20.9km/h 86% 0in /  0.0mm 0.00 W/m2
14:35 47.1 °F /  8.4 °C 43.2 °F /  6.2 °C 29.7in /  1006.3hPa WNW 10.1mph /  16.3km/h 15mph /  24.1km/h 86% 0in /  0.0mm 0.00 W/m2
14:40 46.9 °F /  8.3 °C 43 °F /  6.1 °C 29.7in /  1006.3hPa WNW 8.9mph /  14.3km/h 16mph /  25.7km/h 86% 0in /  0.0mm 0.00 W/m2
14:45 46.9 °F /  8.3 °C 43 °F /  6.1 °C 29.7in /  1006.3hPa WNW 6mph /  9.7km/h 15mph /  24.1km/h 86% 0in /  0.0mm 0.00 W/m2
14:50 46.9 °F /  8.3 °C 43 °F /  6.1 °C 29.7in /  1006.3hPa West 13mph /  20.9km/h 18mph /  29.0km/h 86% 0in /  0.0mm 0.00 W/m2
14:55 46.9 °F /  8.3 °C 43 °F /  6.1 °C 29.7in /  1006.3hPa West 15mph /  24.1km/h 15mph /  24.1km/h 86% 0in /  0.0mm 0.00 W/m2
15:00 46.9 °F /  8.3 °C 43 °F /  6.1 °C 29.7in /  1006.7hPa WNW 15mph /  24.1km/h 18mph /  29.0km/h 86% 0in /  0.0mm 0.00 W/m2
15:05 46.9 °F /  8.3 °C 43 °F /  6.1 °C 29.7in /  1006.7hPa WNW 6.9mph /  11.1km/h 15mph /  24.1km/h 86% 0in /  0.0mm 0.00 W/m2
15:10 46.8 °F /  8.2 °C 43.2 °F /  6.2 °C 29.7in /  1006.7hPa West 4.9mph /  7.9km/h 11mph /  17.7km/h 87% 0in /  0.0mm 0.00 W/m2
15:15 46.6 °F /  8.1 °C 43 °F /  6.1 °C 29.7in /  1006.7hPa West 12.1mph /  19.5km/h 12mph /  19.3km/h 87% 0in /  0.0mm 0.00 W/m2
15:20 46.6 °F /  8.1 °C 43 °F /  6.1 °C 29.7in /  1006.7hPa NNW 11mph /  17.7km/h 13mph /  20.9km/h 87% 0in /  0.0mm 0.00 W/m2
15:25 46.4 °F /  8.0 °C 42.8 °F /  6.0 °C 29.7in /  1006.7hPa WNW 8.9mph /  14.3km/h 13mph /  20.9km/h 87% 0in /  0.0mm 0.00 W/m2
15:30 46.4 °F /  8.0 °C 42.4 °F /  5.8 °C 29.7in /  1006.7hPa WNW 10.1mph /  16.3km/h 15mph /  24.1km/h 86% 0in /  0.0mm 0.00 W/m2
15:35 46.2 °F /  7.9 °C 42.3 °F /  5.7 °C 29.7in /  1006.7hPa WNW 8.9mph /  14.3km/h 14mph /  22.5km/h 86% 0in /  0.0mm 0.00 W/m2
15:40 46.2 °F /  7.9 °C 42.3 °F /  5.7 °C 29.7in /  1006.3hPa NW 6.9mph /  11.1km/h 10mph /  16.1km/h 86% 0in /  0.0mm 0.00 W/m2
15:45 46 °F /  7.8 °C 42.1 °F /  5.6 °C 29.7in /  1006.7hPa West 4.9mph /  7.9km/h 9mph /  14.5km/h 86% 0in /  0.0mm 0.00 W/m2
15:50 46 °F /  7.8 °C 42.1 °F /  5.6 °C 29.7in /  1006.3hPa West 8.9mph /  14.3km/h 15mph /  24.1km/h 86% 0in /  0.0mm 0.00 W/m2
15:55 46 °F /  7.8 °C 42.1 °F /  5.6 °C 29.7in /  1006.3hPa West 8.1mph /  13.0km/h 16mph /  25.7km/h 86% 0in /  0.0mm 0.00 W/m2
16:00 46 °F /  7.8 °C 42.1 °F /  5.6 °C 29.7in /  1006.3hPa NNW 8.1mph /  13.0km/h 13mph /  20.9km/h 86% 0in /  0.0mm 0.00 W/m2
16:05 46 °F /  7.8 °C 42.1 °F /  5.6 °C 29.7in /  1006.7hPa West 4.9mph /  7.9km/h 11mph /  17.7km/h 86% 0in /  0.0mm 0.00 W/m2
16:10 45.9 °F /  7.7 °C 42.3 °F /  5.7 °C 29.7in /  1006.7hPa WNW 4.9mph /  7.9km/h 12mph /  19.3km/h 87% 0in /  0.0mm 0.00 W/m2
16:15 45.7 °F /  7.6 °C 41.7 °F /  5.4 °C 29.7in /  1006.7hPa WNW 6mph /  9.7km/h 10mph /  16.1km/h 86% 0in /  0.0mm 0.00 W/m2
16:20 45.9 °F /  7.7 °C 42.3 °F /  5.7 °C 29.7in /  1006.7hPa WNW 2.9mph /  4.7km/h 12mph /  19.3km/h 87% 0in /  0.0mm 0.00 W/m2
16:25 46 °F /  7.8 °C 42.4 °F /  5.8 °C 29.7in /  1006.7hPa NW 8.9mph /  14.3km/h 11mph /  17.7km/h 87% 0in /  0.0mm 0.00 W/m2
16:30 46 °F /  7.8 °C 42.4 °F /  5.8 °C 29.7in /  1006.7hPa WNW 4mph /  6.4km/h 12mph /  19.3km/h 87% 0in /  0.0mm 0.00 W/m2
16:35 46.2 °F /  7.9 °C 42.6 °F /  5.9 °C 29.7in /  1006.7hPa West 4mph /  6.4km/h 15mph /  24.1km/h 87% 0in /  0.0mm 0.00 W/m2
16:40 46.2 °F /  7.9 °C 42.6 °F /  5.9 °C 29.7in /  1006.3hPa WNW 4mph /  6.4km/h 7mph /  11.3km/h 87% 0in /  0.0mm 0.00 W/m2
16:45 46.2 °F /  7.9 °C 42.6 °F /  5.9 °C 29.7in /  1006.3hPa WNW 4.9mph /  7.9km/h 11mph /  17.7km/h 87% 0in /  0.0mm 0.00 W/m2
16:50 46.2 °F /  7.9 °C 42.6 °F /  5.9 °C 29.7in /  1006.3hPa West 8.1mph /  13.0km/h 13mph /  20.9km/h 87% 0in /  0.0mm 0.00 W/m2
16:55 46.4 °F /  8.0 °C 42.8 °F /  6.0 °C 29.7in /  1006.3hPa West 6mph /  9.7km/h 17mph /  27.4km/h 87% 0in /  0.0mm 0.00 W/m2
17:00 46.2 °F /  7.9 °C 42.6 °F /  5.9 °C 29.7in /  1006.3hPa WNW 6mph /  9.7km/h 17mph /  27.4km/h 87% 0in /  0.0mm 0.00 W/m2
17:05 46.2 °F /  7.9 °C 42.6 °F /  5.9 °C 29.7in /  1006.3hPa West 4.9mph /  7.9km/h 13mph /  20.9km/h 87% 0in /  0.0mm 0.00 W/m2
17:11 46.2 °F /  7.9 °C 42.3 °F /  5.7 °C 29.7in /  1006.3hPa NW 6mph /  9.7km/h 15mph /  24.1km/h 86% 0in /  0.0mm 0.00 W/m2
17:15 46 °F /  7.8 °C 42.1 °F /  5.6 °C 29.7in /  1006.3hPa West 6.9mph /  11.1km/h 11mph /  17.7km/h 86% 0in /  0.0mm 0.00 W/m2
17:20 46.2 °F /  7.9 °C 42.3 °F /  5.7 °C 29.7in /  1006.3hPa WNW 14.1mph /  22.7km/h 15mph /  24.1km/h 86% 0in /  0.0mm 0.00 W/m2
17:25 46 °F /  7.8 °C 42.1 °F /  5.6 °C 29.7in /  1006.3hPa West 17.9mph /  28.8km/h 21mph /  33.8km/h 86% 0in /  0.0mm 0.00 W/m2
17:30 46 °F /  7.8 °C 42.1 °F /  5.6 °C 29.7in /  1006.3hPa NW 6mph /  9.7km/h 16mph /  25.7km/h 86% 0in /  0.0mm 0.00 W/m2
17:35 45.9 °F /  7.7 °C 41.9 °F /  5.5 °C 29.7in /  1006.3hPa West 8.9mph /  14.3km/h 15mph /  24.1km/h 86% 0in /  0.0mm 0.00 W/m2
17:40 45.9 °F /  7.7 °C 41.9 °F /  5.5 °C 29.7in /  1006.3hPa West 13mph /  20.9km/h 18mph /  29.0km/h 86% 0in /  0.0mm 0.00 W/m2
17:45 45.7 °F /  7.6 °C 41.4 °F /  5.2 °C 29.7in /  1006.3hPa WNW 4mph /  6.4km/h 15mph /  24.1km/h 85% 0in /  0.0mm 0.00 W/m2
17:51 45.7 °F /  7.6 °C 41.7 °F /  5.4 °C 29.7in /  1006.3hPa West 12.1mph /  19.5km/h 18mph /  29.0km/h 86% 0in /  0.0mm 0.00 W/m2
17:55 45.7 °F /  7.6 °C 41.4 °F /  5.2 °C 29.7in /  1006.0hPa West 6mph /  9.7km/h 12mph /  19.3km/h 85% 0in /  0.0mm 0.00 W/m2
18:00 45.7 °F /  7.6 °C 41.4 °F /  5.2 °C 29.7in /  1006.0hPa WNW 8.1mph /  13.0km/h 10mph /  16.1km/h 85% 0in /  0.0mm 0.00 W/m2
18:05 45.5 °F /  7.5 °C 41.5 °F /  5.3 °C 29.7in /  1006.0hPa West 6.9mph /  11.1km/h 11mph /  17.7km/h 86% 0in /  0.0mm 0.00 W/m2
18:10 45.3 °F /  7.4 °C 41.4 °F /  5.2 °C 29.7in /  1006.0hPa West 10.1mph /  16.3km/h 11mph /  17.7km/h 86% 0in /  0.0mm 0.00 W/m2
18:15 45.1 °F /  7.3 °C 41.2 °F /  5.1 °C 29.7in /  1006.0hPa NW 6mph /  9.7km/h 10mph /  16.1km/h 86% 0in /  0.0mm 0.00 W/m2
18:20 45.1 °F /  7.3 °C 41.5 °F /  5.3 °C 29.7in /  1006.0hPa West 10.1mph /  16.3km/h 11mph /  17.7km/h 87% 0in /  0.0mm 0.00 W/m2
18:25 45.1 °F /  7.3 °C 41.5 °F /  5.3 °C 29.7in /  1006.0hPa WNW 4.9mph /  7.9km/h 11mph /  17.7km/h 87% 0in /  0.0mm 0.00 W/m2
18:30 45.1 °F /  7.3 °C 41.5 °F /  5.3 °C 29.7in /  1006.0hPa WNW 10.1mph /  16.3km/h 10mph /  16.1km/h 87% 0in /  0.0mm 0.00 W/m2
18:35 45.1 °F /  7.3 °C 41.5 °F /  5.3 °C 29.7in /  1006.0hPa West 8.9mph /  14.3km/h 17mph /  27.4km/h 87% 0in /  0.0mm 0.00 W/m2
18:40 45.3 °F /  7.4 °C 41.7 °F /  5.4 °C 29.7in /  1006.0hPa WNW 6.9mph /  11.1km/h 16mph /  25.7km/h 87% 0in /  0.0mm 0.00 W/m2
18:45 45.3 °F /  7.4 °C 41.4 °F /  5.2 °C 29.7in /  1006.0hPa WNW 12.1mph /  19.5km/h 14mph /  22.5km/h 86% 0in /  0.0mm 0.00 W/m2
18:50 45.3 °F /  7.4 °C 41.4 °F /  5.2 °C 29.7in /  1006.0hPa WNW 12.1mph /  19.5km/h 14mph /  22.5km/h 86% 0in /  0.0mm 0.00 W/m2
18:55 45.3 °F /  7.4 °C 41 °F /  5.0 °C 29.7in /  1006.0hPa West 12.1mph /  19.5km/h 12mph /  19.3km/h 85% 0in /  0.0mm 0.00 W/m2
19:00 45.3 °F /  7.4 °C 40.8 °F /  4.9 °C 29.7in /  1006.0hPa WNW 6mph /  9.7km/h 14mph /  22.5km/h 84% 0in /  0.0mm 0.00 W/m2
19:05 45.3 °F /  7.4 °C 40.8 °F /  4.9 °C 29.7in /  1006.0hPa WNW 8.9mph /  14.3km/h 15mph /  24.1km/h 84% 0in /  0.0mm 0.00 W/m2
19:11 45.1 °F /  7.3 °C 40.3 °F /  4.6 °C 29.7in /  1006.0hPa WNW 6mph /  9.7km/h 11mph /  17.7km/h 83% 0in /  0.0mm 0.00 W/m2
19:15 45.1 °F /  7.3 °C 40.3 °F /  4.6 °C 29.7in /  1006.0hPa West 4.9mph /  7.9km/h 8mph /  12.9km/h 83% 0in /  0.0mm 0.00 W/m2
19:20 45 °F /  7.2 °C 40.1 °F /  4.5 °C 29.7in /  1006.0hPa WNW 8.1mph /  13.0km/h 15mph /  24.1km/h 83% 0in /  0.0mm 0.00 W/m2
19:25 45 °F /  7.2 °C 40.1 °F /  4.5 °C 29.7in /  1006.0hPa WNW 8.1mph /  13.0km/h 12mph /  19.3km/h 83% 0in /  0.0mm 0.00 W/m2
19:30 45.1 °F /  7.3 °C 40.3 °F /  4.6 °C 29.7in /  1006.0hPa West 6.9mph /  11.1km/h 12mph /  19.3km/h 83% 0in /  0.0mm 0.00 W/m2
19:35 45 °F /  7.2 °C 40.1 °F /  4.5 °C 29.7in /  1006.0hPa West 6mph /  9.7km/h 9mph /  14.5km/h 83% 0in /  0.0mm 0.00 W/m2
19:40 45 °F /  7.2 °C 40.1 °F /  4.5 °C 29.7in /  1006.0hPa NW 15mph /  24.1km/h 15mph /  24.1km/h 83% 0in /  0.0mm 0.00 W/m2
19:45 44.8 °F /  7.1 °C 39.6 °F /  4.2 °C 29.7in /  1006.0hPa West 8.1mph /  13.0km/h 13mph /  20.9km/h 82% 0in /  0.0mm 0.00 W/m2
19:50 44.4 °F /  6.9 °C 39.2 °F /  4.0 °C 29.7in /  1006.0hPa West 4.9mph /  7.9km/h 12mph /  19.3km/h 82% 0in /  0.0mm 0.00 W/m2
19:55 44.2 °F /  6.8 °C 39 °F /  3.9 °C 29.7in /  1006.0hPa WNW 6mph /  9.7km/h 10mph /  16.1km/h 82% 0in /  0.0mm 0.00 W/m2
20:00 44.1 °F /  6.7 °C 39.2 °F /  4.0 °C 29.7in /  1006.0hPa WNW 6mph /  9.7km/h 8mph /  12.9km/h 83% 0in /  0.0mm 0.00 W/m2
20:05 44.1 °F /  6.7 °C 39.2 °F /  4.0 °C 29.7in /  1006.0hPa West 6.9mph /  11.1km/h 8mph /  12.9km/h 83% 0in /  0.0mm 0.00 W/m2
20:10 44.1 °F /  6.7 °C 39.2 °F /  4.0 °C 29.7in /  1006.0hPa WSW 4.9mph /  7.9km/h 5mph /  8.0km/h 83% 0in /  0.0mm 0.00 W/m2
20:15 43.9 °F /  6.6 °C 39.4 °F /  4.1 °C 29.7in /  1006.0hPa West 6mph /  9.7km/h 10mph /  16.1km/h 84% 0in /  0.0mm 0.00 W/m2
20:20 43.9 °F /  6.6 °C 39.4 °F /  4.1 °C 29.7in /  1005.6hPa WSW 4.9mph /  7.9km/h 6mph /  9.7km/h 84% 0in /  0.0mm 0.00 W/m2
20:25 43.5 °F /  6.4 °C 39 °F /  3.9 °C 29.7in /  1005.6hPa WNW 4.9mph /  7.9km/h 10mph /  16.1km/h 84% 0in /  0.0mm 0.00 W/m2
20:30 43.5 °F /  6.4 °C 39 °F /  3.9 °C 29.7in /  1005.6hPa WNW 6mph /  9.7km/h 11mph /  17.7km/h 84% 0in /  0.0mm 0.00 W/m2
20:35 43.3 °F /  6.3 °C 38.8 °F /  3.8 °C 29.7in /  1005.6hPa WNW 6mph /  9.7km/h 10mph /  16.1km/h 84% 0in /  0.0mm 0.00 W/m2
20:40 43.2 °F /  6.2 °C 38.7 °F /  3.7 °C 29.7in /  1005.6hPa NW 4.9mph /  7.9km/h 8mph /  12.9km/h 84% 0in /  0.0mm 0.00 W/m2
20:45 43 °F /  6.1 °C 38.8 °F /  3.8 °C 29.7in /  1005.6hPa West 8.9mph /  14.3km/h 9mph /  14.5km/h 85% 0in /  0.0mm 0.00 W/m2
20:50 42.8 °F /  6.0 °C 38.7 °F /  3.7 °C 29.7in /  1005.6hPa WNW 6.9mph /  11.1km/h 9mph /  14.5km/h 85% 0in /  0.0mm 0.00 W/m2
20:55 42.6 °F /  5.9 °C 38.5 °F /  3.6 °C 29.7in /  1005.6hPa WNW 4.9mph /  7.9km/h 10mph /  16.1km/h 85% 0in /  0.0mm 0.00 W/m2
21:00 42.4 °F /  5.8 °C 38.3 °F /  3.5 °C 29.7in /  1005.6hPa WNW 4mph /  6.4km/h 9mph /  14.5km/h 85% 0in /  0.0mm 0.00 W/m2
21:05 42.3 °F /  5.7 °C 38.1 °F /  3.4 °C 29.7in /  1005.6hPa WNW 6mph /  9.7km/h 7mph /  11.3km/h 85% 0in /  0.0mm 0.00 W/m2
21:10 42.3 °F /  5.7 °C 38.1 °F /  3.4 °C 29.7in /  1005.6hPa WNW 4.9mph /  7.9km/h 7mph /  11.3km/h 85% 0in /  0.0mm 0.00 W/m2
21:15 42.3 °F /  5.7 °C 38.1 °F /  3.4 °C 29.7in /  1005.6hPa West 2.9mph /  4.7km/h 6mph /  9.7km/h 85% 0in /  0.0mm 0.00 W/m2
21:20 42.1 °F /  5.6 °C 37.9 °F /  3.3 °C 29.7in /  1005.6hPa West 2.9mph /  4.7km/h 6mph /  9.7km/h 85% 0in /  0.0mm 0.00 W/m2
21:25 41.9 °F /  5.5 °C 37.8 °F /  3.2 °C 29.7in /  1005.3hPa West 2.9mph /  4.7km/h 4mph /  6.4km/h 85% 0in /  0.0mm 0.00 W/m2
21:30 41.9 °F /  5.5 °C 37.8 °F /  3.2 °C 29.7in /  1005.3hPa West 2.9mph /  4.7km/h 5mph /  8.0km/h 85% 0in /  0.0mm 0.00 W/m2
21:35 41.7 °F /  5.4 °C 37.8 °F /  3.2 °C 29.7in /  1005.3hPa WNW 2mph /  3.2km/h 5mph /  8.0km/h 86% 0in /  0.0mm 0.00 W/m2
21:40 41.7 °F /  5.4 °C 37.8 °F /  3.2 °C 29.7in /  1005.0hPa WNW 2mph /  3.2km/h 6mph /  9.7km/h 86% 0in /  0.0mm 0.00 W/m2
21:45 41.5 °F /  5.3 °C 37.6 °F /  3.1 °C 29.7in /  1005.0hPa West 2mph /  3.2km/h 4mph /  6.4km/h 86% 0in /  0.0mm 0.00 W/m2
21:50 41.4 °F /  5.2 °C 37.6 °F /  3.1 °C 29.7in /  1005.0hPa West 2mph /  3.2km/h 3mph /  4.8km/h 86% 0in /  0.0mm 0.00 W/m2
21:55 41.4 °F /  5.2 °C 37.6 °F /  3.1 °C 29.7in /  1005.0hPa WNW 0.9mph /  1.4km/h 3mph /  4.8km/h 86% 0in /  0.0mm 0.00 W/m2
22:00 41.2 °F /  5.1 °C 37.4 °F /  3.0 °C 29.7in /  1005.0hPa WNW 2.9mph /  4.7km/h 3mph /  4.8km/h 86% 0in /  0.0mm 0.00 W/m2
22:05 40.8 °F /  4.9 °C 37.2 °F /  2.9 °C 29.7in /  1005.0hPa WNW 0.9mph /  1.4km/h 3mph /  4.8km/h 87% 0in /  0.0mm 0.00 W/m2
22:10 40.8 °F /  4.9 °C 37.2 °F /  2.9 °C 29.7in /  1005.0hPa WNW 0.9mph /  1.4km/h 3mph /  4.8km/h 87% 0in /  0.0mm 0.00 W/m2
22:16 40.8 °F /  4.9 °C 37.2 °F /  2.9 °C 29.7in /  1004.6hPa WNW 2mph /  3.2km/h 4mph /  6.4km/h 87% 0in /  0.0mm 0.00 W/m2
22:20 40.8 °F /  4.9 °C 37.2 °F /  2.9 °C 29.7in /  1004.6hPa NW 2mph /  3.2km/h 5mph /  8.0km/h 87% 0in /  0.0mm 0.00 W/m2
22:25 40.8 °F /  4.9 °C 37.2 °F /  2.9 °C 29.7in /  1004.6hPa NW 2mph /  3.2km/h 4mph /  6.4km/h 87% 0in /  0.0mm 0.00 W/m2
22:30 40.8 °F /  4.9 °C 37.6 °F /  3.1 °C 29.7in /  1004.6hPa WNW 2mph /  3.2km/h 4mph /  6.4km/h 88% 0in /  0.0mm 0.00 W/m2
22:35 40.8 °F /  4.9 °C 37.6 °F /  3.1 °C 29.7in /  1004.6hPa WNW 0.9mph /  1.4km/h 2mph /  3.2km/h 88% 0in /  0.0mm 0.00 W/m2
22:40 41.2 °F /  5.1 °C 37.9 °F /  3.3 °C 29.7in /  1004.6hPa WNW 2mph /  3.2km/h 3mph /  4.8km/h 88% 0in /  0.0mm 0.00 W/m2
22:45 41 °F /  5.0 °C 37.8 °F /  3.2 °C 29.7in /  1004.6hPa WNW 2mph /  3.2km/h 3mph /  4.8km/h 88% 0in /  0.0mm 0.00 W/m2
22:50 41 °F /  5.0 °C 37.8 °F /  3.2 °C 29.7in /  1004.6hPa Calm   2mph /  3.2km/h 88% 0in /  0.0mm 0.00 W/m2
22:55 41 °F /  5.0 °C 37.8 °F /  3.2 °C 29.7in /  1004.3hPa WNW 2mph /  3.2km/h 3mph /  4.8km/h 88% 0in /  0.0mm 0.00 W/m2
23:01 41 °F /  5.0 °C 37.8 °F /  3.2 °C 29.7in /  1004.3hPa WNW 4mph /  6.4km/h 5mph /  8.0km/h 88% 0in /  0.0mm 0.00 W/m2
23:05 41.2 °F /  5.1 °C 37.9 °F /  3.3 °C 29.7in /  1004.3hPa NW 2.9mph /  4.7km/h 6mph /  9.7km/h 88% 0.01in /  0.3mm 0.00 W/m2
23:10 41.4 °F /  5.2 °C 38.3 °F /  3.5 °C 29.7in /  1004.3hPa WNW 4.9mph /  7.9km/h 5mph /  8.0km/h 89% 0.02in /  0.5mm 0.00 W/m2
23:15 41.4 °F /  5.2 °C 38.3 °F /  3.5 °C 29.7in /  1004.3hPa Calm   4mph /  6.4km/h 89% 0.02in /  0.5mm 0.00 W/m2
23:20 41.4 °F /  5.2 °C 38.3 °F /  3.5 °C 29.7in /  1004.3hPa West 2.9mph /  4.7km/h 6mph /  9.7km/h 89% 0.02in /  0.5mm 0.00 W/m2
23:25 41.5 °F /  5.3 °C 38.8 °F /  3.8 °C 29.7in /  1004.3hPa West 4.9mph /  7.9km/h 5mph /  8.0km/h 90% 0.02in /  0.5mm 0.00 W/m2
23:30 41.5 °F /  5.3 °C 38.8 °F /  3.8 °C 29.7in /  1004.3hPa West 0.9mph /  1.4km/h 4mph /  6.4km/h 90% 0.02in /  0.5mm 0.00 W/m2
23:35 41.5 °F /  5.3 °C 38.8 °F /  3.8 °C 29.7in /  1004.3hPa West 2mph /  3.2km/h 3mph /  4.8km/h 90% 0.02in /  0.5mm 0.00 W/m2
23:40 41.5 °F /  5.3 °C 38.8 °F /  3.8 °C 29.7in /  1004.3hPa West 2.9mph /  4.7km/h 6mph /  9.7km/h 90% 0.02in /  0.5mm 0.00 W/m2
23:45 41.4 °F /  5.2 °C 38.7 °F /  3.7 °C 29.6in /  1003.9hPa West 2mph /  3.2km/h 5mph /  8.0km/h 90% 0.02in /  0.5mm 0.00 W/m2
23:50 41.5 °F /  5.3 °C 38.8 °F /  3.8 °C 29.6in /  1003.9hPa West 2mph /  3.2km/h 4mph /  6.4km/h 90% 0.02in /  0.5mm 0.00 W/m2
23:55 41.5 °F /  5.3 °C 38.8 °F /  3.8 °C 29.6in /  1003.9hPa WSW 2.9mph /  4.7km/h 5mph /  8.0km/h 90% 0.02in /  0.5mm 0.00 W/m2